메인 페이지
METAR-TAF:

METAR-TAF

공항 :

브리즈번 공항

브리즈번, 오스트레일리아

위도: 27-23S, 경도: 153-06E, 고도: 4m

현재 날씨관측

예보는 11분 전, 03:00시(UTC)에 발표되었습니다.
북동7kt풍과 풍을 오가는
온도 23°C
습도 41%
기압 1019 hPa
시정 10km 이상
고도 3000ft 상공 구름 조금

METAR: YBBN 210300Z 13005KT 100V170 CAVOK 23/09 Q1019 FM0400 05007KT 9999 FEW030

시각: 13:11 (03:11 UTC)

예보

예보는 4 시간 11분 전, 23:00시(UTC)에 발표되었습니다.
예보 대상 시간: 21일 00시부터 22일 06시까지 (UTC)
남서8kt
시정 10km 이상
고도 2500ft 상공 구름 조금
21일 0400시부터 (UTC)
북동7kt
시정 10km 이상
고도 3000ft 상공 구름 조금
21일 0900시부터 (UTC)
서북서6kt
시정 10km 이상
1500m 미만 상공 구름 및 적란운 없음
21일 1400시부터 (UTC)
서남서5kt
시정 10km 이상
1500m 미만 상공 구름 및 적란운 없음
22일 0300시부터 (UTC)
북동6kt
시정 10km 이상
1500m 미만 상공 구름 및 적란운 없음

TAF: YBBN 202300Z 2100/2206 22008KT 9999 FEW025 FM210400 05007KT 9999 FEW030 FM210900 30006KT CAVOK FM211400 25005KT CAVOK FM220300 05006KT CAVOK

4,000개 이상의 공항 관측 자료 및 예보 (METAR 및 TAF 보고).

지도상에서 검색 가능한 기상관측소가 노란 점과 빨간 점으로 표시되어 있습니다.

기상관측소 명을 보려면 표시 위로 마우스를 이동하세요.

날씨 관측과 예보를 보려면 클릭하세요.

지도 변경 : 확대하려면 엑스 표시가 있는 녹색 버튼, 축소하려면 빼기 표시가 있는 녹색 버튼, 다음 페이지의 지도를 보려면 녹색 화살표를 클릭하세요.


METAR-TAF: